sensor_id;sensor_type;location;lat;lon;timestamp;P1;durP1;ratioP1;P2;durP2;ratioP2
19826;SDS011;10074;52.018;4.726;2023-09-18T00:04:57;3.42;;;2.63;;
19826;SDS011;10074;52.018;4.726;2023-09-18T00:09:57;4.22;;;2.22;;
19826;SDS011;10074;52.018;4.726;2023-09-18T00:14:57;1.90;;;1.75;;
19826;SDS011;10074;52.018;4.726;2023-09-18T00:19:57;3.28;;;1.70;;
19826;SDS011;10074;52.018;4.726;2023-09-18T00:24:58;2.75;;;2.20;;
19826;SDS011;10074;52.018;4.726;2023-09-18T00:29:58;2.75;;;1.35;;
19826;SDS011;10074;52.018;4.726;2023-09-18T00:34:58;4.05;;;2.03;;
19826;SDS011;10074;52.018;4.726;2023-09-18T00:39:59;3.35;;;2.65;;
19826;SDS011;10074;52.018;4.726;2023-09-18T00:44:59;1.85;;;1.75;;
19826;SDS011;10074;52.018;4.726;2023-09-18T00:49:59;2.45;;;1.70;;
19826;SDS011;10074;52.018;4.726;2023-09-18T00:55:00;2.33;;;1.98;;
19826;SDS011;10074;52.018;4.726;2023-09-18T01:00:02;2.22;;;2.13;;
19826;SDS011;10074;52.018;4.726;2023-09-18T01:05:05;1.60;;;1.50;;
19826;SDS011;10074;52.018;4.726;2023-09-18T01:10:06;2.60;;;2.10;;
19826;SDS011;10074;52.018;4.726;2023-09-18T01:15:14;5.95;;;1.65;;
19826;SDS011;10074;52.018;4.726;2023-09-18T01:20:21;2.13;;;1.63;;
19826;SDS011;10074;52.018;4.726;2023-09-18T01:25:21;2.47;;;2.28;;
19826;SDS011;10074;52.018;4.726;2023-09-18T01:30:22;4.05;;;2.38;;
19826;SDS011;10074;52.018;4.726;2023-09-18T01:35:25;3.28;;;2.97;;
19826;SDS011;10074;52.018;4.726;2023-09-18T01:40:29;2.33;;;1.83;;
19826;SDS011;10074;52.018;4.726;2023-09-18T01:45:31;2.38;;;2.03;;
19826;SDS011;10074;52.018;4.726;2023-09-18T01:50:32;2.58;;;2.25;;
19826;SDS011;10074;52.018;4.726;2023-09-18T01:55:33;2.17;;;1.98;;
19826;SDS011;10074;52.018;4.726;2023-09-18T02:00:33;2.53;;;2.33;;
19826;SDS011;10074;52.018;4.726;2023-09-18T02:05:33;4.13;;;2.28;;
19826;SDS011;10074;52.018;4.726;2023-09-18T02:10:34;4.53;;;2.97;;
19826;SDS011;10074;52.018;4.726;2023-09-18T02:15:36;6.23;;;2.57;;
19826;SDS011;10074;52.018;4.726;2023-09-18T02:20:40;2.13;;;1.40;;
19826;SDS011;10074;52.018;4.726;2023-09-18T02:25:41;2.35;;;2.10;;
19826;SDS011;10074;52.018;4.726;2023-09-18T02:30:41;2.20;;;2.00;;
19826;SDS011;10074;52.018;4.726;2023-09-18T02:35:42;2.30;;;2.10;;
19826;SDS011;10074;52.018;4.726;2023-09-18T02:40:45;4.00;;;2.08;;
19826;SDS011;10074;52.018;4.726;2023-09-18T02:45:45;2.53;;;2.25;;
19826;SDS011;10074;52.018;4.726;2023-09-18T02:50:46;2.33;;;2.13;;
19826;SDS011;10074;52.018;4.726;2023-09-18T02:55:50;2.63;;;2.07;;
19826;SDS011;10074;52.018;4.726;2023-09-18T03:00:52;2.72;;;2.35;;
19826;SDS011;10074;52.018;4.726;2023-09-18T03:06:03;3.22;;;2.60;;
19826;SDS011;10074;52.018;4.726;2023-09-18T03:11:11;2.55;;;2.35;;
19826;SDS011;10074;52.018;4.726;2023-09-18T03:16:12;4.45;;;2.90;;
19826;SDS011;10074;52.018;4.726;2023-09-18T03:21:13;1.88;;;1.77;;
19826;SDS011;10074;52.018;4.726;2023-09-18T03:26:13;2.47;;;2.28;;
19826;SDS011;10074;52.018;4.726;2023-09-18T03:31:13;2.95;;;2.75;;
19826;SDS011;10074;52.018;4.726;2023-09-18T03:36:14;2.22;;;2.00;;
19826;SDS011;10074;52.018;4.726;2023-09-18T03:41:14;1.98;;;1.88;;
19826;SDS011;10074;52.018;4.726;2023-09-18T03:46:15;2.40;;;2.20;;
19826;SDS011;10074;52.018;4.726;2023-09-18T03:51:15;4.22;;;1.45;;
19826;SDS011;10074;52.018;4.726;2023-09-18T03:56:15;2.03;;;1.83;;
19826;SDS011;10074;52.018;4.726;2023-09-18T04:01:16;3.25;;;2.67;;
19826;SDS011;10074;52.018;4.726;2023-09-18T04:06:17;4.10;;;2.10;;
19826;SDS011;10074;52.018;4.726;2023-09-18T04:11:20;3.03;;;2.35;;
19826;SDS011;10074;52.018;4.726;2023-09-18T04:16:25;2.35;;;1.80;;
19826;SDS011;10074;52.018;4.726;2023-09-18T04:21:26;3.72;;;2.75;;
19826;SDS011;10074;52.018;4.726;2023-09-18T04:26:26;2.45;;;1.63;;
19826;SDS011;10074;52.018;4.726;2023-09-18T04:31:31;2.50;;;1.67;;
19826;SDS011;10074;52.018;4.726;2023-09-18T04:36:32;2.15;;;1.73;;
19826;SDS011;10074;52.018;4.726;2023-09-18T04:41:32;2.70;;;1.75;;
19826;SDS011;10074;52.018;4.726;2023-09-18T04:46:33;1.38;;;1.17;;
19826;SDS011;10074;52.018;4.726;2023-09-18T04:51:35;1.75;;;1.65;;
19826;SDS011;10074;52.018;4.726;2023-09-18T04:56:36;1.83;;;1.65;;
19826;SDS011;10074;52.018;4.726;2023-09-18T05:01:37;7.72;;;1.95;;
19826;SDS011;10074;52.018;4.726;2023-09-18T05:06:37;3.08;;;1.83;;
19826;SDS011;10074;52.018;4.726;2023-09-18T05:11:39;3.13;;;2.13;;
19826;SDS011;10074;52.018;4.726;2023-09-18T05:16:41;1.70;;;1.23;;
19826;SDS011;10074;52.018;4.726;2023-09-18T05:21:42;1.87;;;1.47;;
19826;SDS011;10074;52.018;4.726;2023-09-18T05:26:43;1.65;;;1.15;;
19826;SDS011;10074;52.018;4.726;2023-09-18T05:31:43;2.00;;;1.45;;
19826;SDS011;10074;52.018;4.726;2023-09-18T05:36:44;1.50;;;1.10;;
19826;SDS011;10074;52.018;4.726;2023-09-18T05:41:44;1.33;;;1.17;;
19826;SDS011;10074;52.018;4.726;2023-09-18T05:46:44;2.20;;;1.95;;
19826;SDS011;10074;52.018;4.726;2023-09-18T05:51:45;2.10;;;1.95;;
19826;SDS011;10074;52.018;4.726;2023-09-18T05:56:47;1.98;;;1.55;;
19826;SDS011;10074;52.018;4.726;2023-09-18T06:01:47;3.97;;;1.90;;
19826;SDS011;10074;52.018;4.726;2023-09-18T06:06:49;1.00;;;0.85;;
19826;SDS011;10074;52.018;4.726;2023-09-18T06:11:49;1.55;;;1.00;;
19826;SDS011;10074;52.018;4.726;2023-09-18T06:16:49;2.20;;;1.85;;
19826;SDS011;10074;52.018;4.726;2023-09-18T06:21:50;2.50;;;1.55;;
19826;SDS011;10074;52.018;4.726;2023-09-18T06:26:50;2.23;;;1.43;;
19826;SDS011;10074;52.018;4.726;2023-09-18T06:31:51;3.30;;;1.23;;
19826;SDS011;10074;52.018;4.726;2023-09-18T06:36:51;3.28;;;1.73;;
19826;SDS011;10074;52.018;4.726;2023-09-18T06:41:52;4.75;;;2.33;;
19826;SDS011;10074;52.018;4.726;2023-09-18T06:46:52;2.75;;;1.83;;
19826;SDS011;10074;52.018;4.726;2023-09-18T06:51:53;2.17;;;1.08;;
19826;SDS011;10074;52.018;4.726;2023-09-18T06:56:53;1.50;;;1.40;;
19826;SDS011;10074;52.018;4.726;2023-09-18T07:01:54;2.15;;;1.48;;
19826;SDS011;10074;52.018;4.726;2023-09-18T07:06:54;2.55;;;1.33;;
19826;SDS011;10074;52.018;4.726;2023-09-18T07:11:56;1.88;;;1.17;;
19826;SDS011;10074;52.018;4.726;2023-09-18T07:16:56;8.68;;;1.77;;
19826;SDS011;10074;52.018;4.726;2023-09-18T07:21:56;1.35;;;1.15;;
19826;SDS011;10074;52.018;4.726;2023-09-18T07:26:57;2.42;;;1.02;;
19826;SDS011;10074;52.018;4.726;2023-09-18T07:31:58;1.17;;;1.10;;
19826;SDS011;10074;52.018;4.726;2023-09-18T07:36:58;2.10;;;1.15;;
19826;SDS011;10074;52.018;4.726;2023-09-18T07:41:58;1.40;;;1.30;;
19826;SDS011;10074;52.018;4.726;2023-09-18T07:46:59;1.65;;;0.80;;
19826;SDS011;10074;52.018;4.726;2023-09-18T07:52:01;2.78;;;1.58;;
19826;SDS011;10074;52.018;4.726;2023-09-18T07:57:01;2.10;;;1.63;;
19826;SDS011;10074;52.018;4.726;2023-09-18T08:02:02;1.63;;;1.52;;
19826;SDS011;10074;52.018;4.726;2023-09-18T08:07:03;0.93;;;0.93;;
19826;SDS011;10074;52.018;4.726;2023-09-18T08:12:06;0.95;;;0.68;;
19826;SDS011;10074;52.018;4.726;2023-09-18T08:17:08;1.40;;;1.30;;
19826;SDS011;10074;52.018;4.726;2023-09-18T08:22:08;1.33;;;0.77;;
19826;SDS011;10074;52.018;4.726;2023-09-18T08:27:10;1.52;;;1.42;;
19826;SDS011;10074;52.018;4.726;2023-09-18T08:32:11;2.25;;;1.63;;
19826;SDS011;10074;52.018;4.726;2023-09-18T08:37:11;2.70;;;1.05;;
19826;SDS011;10074;52.018;4.726;2023-09-18T08:42:12;1.25;;;0.65;;
19826;SDS011;10074;52.018;4.726;2023-09-18T08:47:15;1.67;;;0.85;;
19826;SDS011;10074;52.018;4.726;2023-09-18T08:52:17;2.72;;;1.33;;
19826;SDS011;10074;52.018;4.726;2023-09-18T08:57:17;1.38;;;1.00;;
19826;SDS011;10074;52.018;4.726;2023-09-18T09:02:18;0.82;;;0.80;;
19826;SDS011;10074;52.018;4.726;2023-09-18T09:07:19;1.25;;;0.90;;
19826;SDS011;10074;52.018;4.726;2023-09-18T09:18:07;0.98;;;0.90;;
19826;SDS011;10074;52.018;4.726;2023-09-18T09:23:09;3.58;;;1.23;;
19826;SDS011;10074;52.018;4.726;2023-09-18T09:28:10;1.30;;;0.70;;
19826;SDS011;10074;52.018;4.726;2023-09-18T09:33:12;1.13;;;0.75;;
19826;SDS011;10074;52.018;4.726;2023-09-18T09:38:12;1.75;;;1.00;;
19826;SDS011;10074;52.018;4.726;2023-09-18T09:43:15;2.13;;;1.20;;
19826;SDS011;10074;52.018;4.726;2023-09-18T09:48:16;0.98;;;0.85;;
19826;SDS011;10074;52.018;4.726;2023-09-18T09:53:16;1.05;;;1.05;;
19826;SDS011;10074;52.018;4.726;2023-09-18T09:58:18;1.75;;;1.27;;
19826;SDS011;10074;52.018;4.726;2023-09-18T10:03:27;1.75;;;1.38;;
19826;SDS011;10074;52.018;4.726;2023-09-18T10:08:29;2.53;;;1.30;;
19826;SDS011;10074;52.018;4.726;2023-09-18T10:29:15;1.75;;;1.15;;
19826;SDS011;10074;52.018;4.726;2023-09-18T10:34:19;0.68;;;0.60;;
19826;SDS011;10074;52.018;4.726;2023-09-18T10:39:21;1.10;;;0.93;;
19826;SDS011;10074;52.018;4.726;2023-09-18T10:44:24;1.05;;;0.80;;
19826;SDS011;10074;52.018;4.726;2023-09-18T10:49:25;1.27;;;1.10;;
19826;SDS011;10074;52.018;4.726;2023-09-18T10:54:26;1.38;;;0.80;;
19826;SDS011;10074;52.018;4.726;2023-09-18T10:59:28;1.50;;;1.40;;
19826;SDS011;10074;52.018;4.726;2023-09-18T11:04:30;1.52;;;1.00;;
19826;SDS011;10074;52.018;4.726;2023-09-18T11:09:32;1.05;;;0.65;;
19826;SDS011;10074;52.018;4.726;2023-09-18T11:14:45;1.42;;;1.00;;
19826;SDS011;10074;52.018;4.726;2023-09-18T11:19:49;1.00;;;0.90;;
19826;SDS011;10074;52.018;4.726;2023-09-18T11:24:50;0.95;;;0.85;;
19826;SDS011;10074;52.018;4.726;2023-09-18T11:29:51;1.27;;;0.98;;
19826;SDS011;10074;52.018;4.726;2023-09-18T11:34:57;1.30;;;0.90;;
19826;SDS011;10074;52.018;4.726;2023-09-18T11:40:06;1.80;;;1.65;;
19826;SDS011;10074;52.018;4.726;2023-09-18T11:45:28;2.08;;;1.05;;
19826;SDS011;10074;52.018;4.726;2023-09-18T11:50:29;1.38;;;1.15;;
19826;SDS011;10074;52.018;4.726;2023-09-18T11:55:30;1.73;;;0.85;;
19826;SDS011;10074;52.018;4.726;2023-09-18T12:00:32;0.88;;;0.73;;
19826;SDS011;10074;52.018;4.726;2023-09-18T12:05:32;1.20;;;1.10;;
19826;SDS011;10074;52.018;4.726;2023-09-18T12:10:33;1.05;;;0.85;;
19826;SDS011;10074;52.018;4.726;2023-09-18T12:15:34;1.23;;;0.90;;
19826;SDS011;10074;52.018;4.726;2023-09-18T12:20:35;1.92;;;0.88;;
19826;SDS011;10074;52.018;4.726;2023-09-18T12:25:38;0.77;;;0.75;;
19826;SDS011;10074;52.018;4.726;2023-09-18T12:30:38;0.50;;;0.50;;
19826;SDS011;10074;52.018;4.726;2023-09-18T12:35:42;0.88;;;0.75;;
19826;SDS011;10074;52.018;4.726;2023-09-18T12:40:42;1.77;;;1.15;;
19826;SDS011;10074;52.018;4.726;2023-09-18T12:45:45;6.18;;;1.30;;
19826;SDS011;10074;52.018;4.726;2023-09-18T12:50:51;3.15;;;1.20;;
19826;SDS011;10074;52.018;4.726;2023-09-18T12:55:53;1.00;;;1.00;;
19826;SDS011;10074;52.018;4.726;2023-09-18T13:00:54;1.17;;;0.88;;
19826;SDS011;10074;52.018;4.726;2023-09-18T13:06:07;1.45;;;1.35;;
19826;SDS011;10074;52.018;4.726;2023-09-18T13:11:11;1.65;;;1.25;;
19826;SDS011;10074;52.018;4.726;2023-09-18T13:16:14;2.97;;;1.58;;
19826;SDS011;10074;52.018;4.726;2023-09-18T13:21:14;1.05;;;0.95;;
19826;SDS011;10074;52.018;4.726;2023-09-18T13:26:15;3.55;;;1.23;;
19826;SDS011;10074;52.018;4.726;2023-09-18T13:31:15;2.05;;;0.77;;
19826;SDS011;10074;52.018;4.726;2023-09-18T13:36:15;2.60;;;1.13;;
19826;SDS011;10074;52.018;4.726;2023-09-18T13:41:15;3.20;;;1.10;;
19826;SDS011;10074;52.018;4.726;2023-09-18T13:46:16;0.73;;;0.73;;
19826;SDS011;10074;52.018;4.726;2023-09-18T13:51:16;1.17;;;1.08;;
19826;SDS011;10074;52.018;4.726;2023-09-18T13:56:16;1.00;;;0.90;;
19826;SDS011;10074;52.018;4.726;2023-09-18T14:01:17;0.93;;;0.80;;
19826;SDS011;10074;52.018;4.726;2023-09-18T14:06:17;1.13;;;0.75;;
19826;SDS011;10074;52.018;4.726;2023-09-18T14:11:18;6.15;;;1.30;;
19826;SDS011;10074;52.018;4.726;2023-09-18T14:16:18;1.70;;;1.30;;
19826;SDS011;10074;52.018;4.726;2023-09-18T14:21:19;2.67;;;1.40;;
19826;SDS011;10074;52.018;4.726;2023-09-18T14:26:19;3.78;;;1.95;;
19826;SDS011;10074;52.018;4.726;2023-09-18T14:31:19;1.30;;;1.20;;
19826;SDS011;10074;52.018;4.726;2023-09-18T14:36:20;1.95;;;1.45;;
19826;SDS011;10074;52.018;4.726;2023-09-18T14:41:20;1.88;;;1.30;;
19826;SDS011;10074;52.018;4.726;2023-09-18T14:46:21;0.90;;;0.80;;
19826;SDS011;10074;52.018;4.726;2023-09-18T14:51:22;10.35;;;1.50;;
19826;SDS011;10074;52.018;4.726;2023-09-18T14:56:23;1.10;;;0.93;;
19826;SDS011;10074;52.018;4.726;2023-09-18T15:01:23;3.85;;;1.35;;
19826;SDS011;10074;52.018;4.726;2023-09-18T15:06:24;1.17;;;0.73;;
19826;SDS011;10074;52.018;4.726;2023-09-18T15:11:26;2.75;;;1.65;;
19826;SDS011;10074;52.018;4.726;2023-09-18T15:16:26;4.13;;;1.67;;
19826;SDS011;10074;52.018;4.726;2023-09-18T15:21:26;1.45;;;0.82;;
19826;SDS011;10074;52.018;4.726;2023-09-18T15:26:27;0.80;;;0.80;;
19826;SDS011;10074;52.018;4.726;2023-09-18T15:31:27;2.42;;;0.88;;
19826;SDS011;10074;52.018;4.726;2023-09-18T15:36:27;0.55;;;0.55;;
19826;SDS011;10074;52.018;4.726;2023-09-18T15:41:28;2.50;;;0.60;;
19826;SDS011;10074;52.018;4.726;2023-09-18T15:46:28;1.13;;;0.60;;
19826;SDS011;10074;52.018;4.726;2023-09-18T15:51:29;0.50;;;0.40;;
19826;SDS011;10074;52.018;4.726;2023-09-18T15:56:29;0.70;;;0.70;;
19826;SDS011;10074;52.018;4.726;2023-09-18T16:01:30;1.67;;;1.38;;
19826;SDS011;10074;52.018;4.726;2023-09-18T16:06:30;0.90;;;0.60;;
19826;SDS011;10074;52.018;4.726;2023-09-18T16:11:31;1.35;;;0.73;;
19826;SDS011;10074;52.018;4.726;2023-09-18T16:16:33;1.40;;;1.25;;
19826;SDS011;10074;52.018;4.726;2023-09-18T16:21:34;3.97;;;0.82;;
19826;SDS011;10074;52.018;4.726;2023-09-18T16:26:34;0.93;;;0.50;;
19826;SDS011;10074;52.018;4.726;2023-09-18T16:31:34;1.38;;;0.85;;
19826;SDS011;10074;52.018;4.726;2023-09-18T16:36:35;1.77;;;1.27;;
19826;SDS011;10074;52.018;4.726;2023-09-18T16:41:35;0.82;;;0.77;;
19826;SDS011;10074;52.018;4.726;2023-09-18T16:46:35;0.98;;;0.88;;
19826;SDS011;10074;52.018;4.726;2023-09-18T16:51:36;5.03;;;1.42;;
19826;SDS011;10074;52.018;4.726;2023-09-18T16:56:36;6.68;;;1.25;;
19826;SDS011;10074;52.018;4.726;2023-09-18T17:01:37;1.50;;;1.05;;
19826;SDS011;10074;52.018;4.726;2023-09-18T17:06:37;4.13;;;1.35;;
19826;SDS011;10074;52.018;4.726;2023-09-18T17:11:38;1.08;;;0.57;;
19826;SDS011;10074;52.018;4.726;2023-09-18T17:16:39;0.77;;;0.68;;
19826;SDS011;10074;52.018;4.726;2023-09-18T17:21:40;1.15;;;1.02;;
19826;SDS011;10074;52.018;4.726;2023-09-18T17:26:40;2.75;;;1.45;;
19826;SDS011;10074;52.018;4.726;2023-09-18T17:31:40;1.88;;;0.77;;
19826;SDS011;10074;52.018;4.726;2023-09-18T17:36:41;1.23;;;0.60;;
19826;SDS011;10074;52.018;4.726;2023-09-18T17:41:42;1.63;;;0.98;;
19826;SDS011;10074;52.018;4.726;2023-09-18T17:46:44;1.58;;;1.15;;
19826;SDS011;10074;52.018;4.726;2023-09-18T17:51:45;4.22;;;1.67;;
19826;SDS011;10074;52.018;4.726;2023-09-18T17:56:45;4.10;;;1.27;;
19826;SDS011;10074;52.018;4.726;2023-09-18T18:01:46;1.90;;;1.15;;
19826;SDS011;10074;52.018;4.726;2023-09-18T18:06:46;9.32;;;1.27;;
19826;SDS011;10074;52.018;4.726;2023-09-18T18:11:46;4.10;;;1.90;;
19826;SDS011;10074;52.018;4.726;2023-09-18T18:16:47;2.53;;;1.20;;
19826;SDS011;10074;52.018;4.726;2023-09-18T18:21:47;0.95;;;0.90;;
19826;SDS011;10074;52.018;4.726;2023-09-18T18:26:48;1.05;;;0.90;;
19826;SDS011;10074;52.018;4.726;2023-09-18T18:31:48;1.23;;;1.02;;
19826;SDS011;10074;52.018;4.726;2023-09-18T18:36:50;2.13;;;1.23;;
19826;SDS011;10074;52.018;4.726;2023-09-18T18:41:50;1.60;;;1.05;;
19826;SDS011;10074;52.018;4.726;2023-09-18T18:46:51;1.63;;;1.35;;
19826;SDS011;10074;52.018;4.726;2023-09-18T18:51:51;3.33;;;1.40;;
19826;SDS011;10074;52.018;4.726;2023-09-18T18:56:52;2.47;;;1.27;;
19826;SDS011;10074;52.018;4.726;2023-09-18T19:01:53;1.80;;;0.98;;
19826;SDS011;10074;52.018;4.726;2023-09-18T19:06:53;6.97;;;1.83;;
19826;SDS011;10074;52.018;4.726;2023-09-18T19:11:53;2.42;;;1.55;;
19826;SDS011;10074;52.018;4.726;2023-09-18T19:16:53;2.83;;;1.30;;
19826;SDS011;10074;52.018;4.726;2023-09-18T19:21:54;2.83;;;2.00;;
19826;SDS011;10074;52.018;4.726;2023-09-18T19:26:54;4.40;;;2.35;;
19826;SDS011;10074;52.018;4.726;2023-09-18T19:31:55;4.25;;;3.05;;
19826;SDS011;10074;52.018;4.726;2023-09-18T19:36:55;3.20;;;1.70;;
19826;SDS011;10074;52.018;4.726;2023-09-18T19:41:55;2.95;;;1.58;;
19826;SDS011;10074;52.018;4.726;2023-09-18T19:46:58;4.22;;;1.45;;
19826;SDS011;10074;52.018;4.726;2023-09-18T19:51:58;3.50;;;1.48;;
19826;SDS011;10074;52.018;4.726;2023-09-18T19:57:00;1.52;;;1.38;;
19826;SDS011;10074;52.018;4.726;2023-09-18T20:02:00;1.95;;;1.17;;
19826;SDS011;10074;52.018;4.726;2023-09-18T20:07:01;1.98;;;1.05;;
19826;SDS011;10074;52.018;4.726;2023-09-18T20:12:04;1.02;;;0.70;;
19826;SDS011;10074;52.018;4.726;2023-09-18T20:17:05;4.03;;;1.75;;
19826;SDS011;10074;52.018;4.726;2023-09-18T20:22:05;2.08;;;1.85;;
19826;SDS011;10074;52.018;4.726;2023-09-18T20:27:06;1.07;;;0.60;;
19826;SDS011;10074;52.018;4.726;2023-09-18T20:32:08;5.07;;;3.35;;
19826;SDS011;10074;52.018;4.726;2023-09-18T20:37:09;2.63;;;0.70;;
19826;SDS011;10074;52.018;4.726;2023-09-18T20:42:09;5.45;;;1.00;;
19826;SDS011;10074;52.018;4.726;2023-09-18T20:47:10;1.90;;;1.45;;
19826;SDS011;10074;52.018;4.726;2023-09-18T20:52:10;2.60;;;1.65;;
19826;SDS011;10074;52.018;4.726;2023-09-18T20:57:10;1.10;;;1.00;;
19826;SDS011;10074;52.018;4.726;2023-09-18T21:02:11;1.95;;;0.85;;
19826;SDS011;10074;52.018;4.726;2023-09-18T21:07:13;1.20;;;0.80;;
19826;SDS011;10074;52.018;4.726;2023-09-18T21:12:13;1.30;;;1.20;;
19826;SDS011;10074;52.018;4.726;2023-09-18T21:17:15;1.38;;;0.80;;
19826;SDS011;10074;52.018;4.726;2023-09-18T21:22:15;3.90;;;1.15;;
19826;SDS011;10074;52.018;4.726;2023-09-18T21:27:16;2.67;;;1.52;;
19826;SDS011;10074;52.018;4.726;2023-09-18T21:32:16;1.60;;;0.80;;
19826;SDS011;10074;52.018;4.726;2023-09-18T21:37:17;1.23;;;0.95;;
19826;SDS011;10074;52.018;4.726;2023-09-18T21:42:17;3.22;;;1.33;;
19826;SDS011;10074;52.018;4.726;2023-09-18T21:47:17;1.13;;;1.00;;
19826;SDS011;10074;52.018;4.726;2023-09-18T21:52:18;1.88;;;0.88;;
19826;SDS011;10074;52.018;4.726;2023-09-18T21:57:20;3.83;;;1.08;;
19826;SDS011;10074;52.018;4.726;2023-09-18T22:02:20;1.77;;;1.30;;
19826;SDS011;10074;52.018;4.726;2023-09-18T22:07:20;2.35;;;0.98;;
19826;SDS011;10074;52.018;4.726;2023-09-18T22:12:21;0.93;;;0.65;;
19826;SDS011;10074;52.018;4.726;2023-09-18T22:17:21;1.70;;;0.73;;
19826;SDS011;10074;52.018;4.726;2023-09-18T22:22:21;3.03;;;1.40;;
19826;SDS011;10074;52.018;4.726;2023-09-18T22:27:22;0.85;;;0.80;;
19826;SDS011;10074;52.018;4.726;2023-09-18T22:32:23;1.13;;;1.02;;
19826;SDS011;10074;52.018;4.726;2023-09-18T22:37:24;0.55;;;0.55;;
19826;SDS011;10074;52.018;4.726;2023-09-18T22:58:07;0.75;;;0.70;;
19826;SDS011;10074;52.018;4.726;2023-09-18T23:03:10;0.98;;;0.70;;
19826;SDS011;10074;52.018;4.726;2023-09-18T23:08:12;1.25;;;0.75;;
19826;SDS011;10074;52.018;4.726;2023-09-18T23:13:12;0.73;;;0.70;;
19826;SDS011;10074;52.018;4.726;2023-09-18T23:18:12;1.30;;;0.80;;
19826;SDS011;10074;52.018;4.726;2023-09-18T23:23:16;1.40;;;0.80;;
19826;SDS011;10074;52.018;4.726;2023-09-18T23:28:17;0.95;;;0.50;;
19826;SDS011;10074;52.018;4.726;2023-09-18T23:33:17;0.80;;;0.80;;
19826;SDS011;10074;52.018;4.726;2023-09-18T23:38:20;2.42;;;1.08;;
19826;SDS011;10074;52.018;4.726;2023-09-18T23:43:23;1.00;;;0.90;;
19826;SDS011;10074;52.018;4.726;2023-09-18T23:48:24;2.25;;;1.10;;
19826;SDS011;10074;52.018;4.726;2023-09-18T23:53:24;1.13;;;0.65;;
19826;SDS011;10074;52.018;4.726;2023-09-18T23:58:27;0.90;;;0.70;;
